Time;durP1;ratioP1;P1;durP2;ratioP2;P2;SDS_P1;SDS_P2;PMS_P1;PMS_P2;Temp;Humidity;BMP_temperature;BMP_pressure;BME280_temperature;BME280_humidity;BME280_pressure;Samples;Min_cycle;Max_cycle;Signal;HPM_P1;HPM_P2
2022/04/19 00:01:56;;;;;;;;;0.00;0.00;19.50;99.90;;;;;;5014053;28;8991;-54
2022/04/19 00:04:28;;;;;;;;;0.00;0.00;19.40;99.90;;;;;;5014374;28;8873;-53
2022/04/19 00:07:00;;;;;;;;;0.00;0.00;19.50;99.90;;;;;;5016104;28;8882;-54
2022/04/19 00:09:31;;;;;;;;;0.00;0.00;19.50;99.90;;;;;;5012533;28;8929;-53
2022/04/19 00:12:01;;;;;;;;;0.33;0.33;19.40;99.90;;;;;;5015938;28;9091;-54
2022/04/19 00:14:34;;;;;;;;;2.00;0.00;19.40;99.90;;;;;;5017107;28;9315;-54
2022/04/19 00:17:05;;;;;;;;;1.00;1.00;19.40;99.90;;;;;;5018809;28;9175;-54
2022/04/19 00:19:36;;;;;;;;;1.00;1.00;19.30;99.90;;;;;;5048274;28;9193;-56
2022/04/19 00:22:06;;;;;;;;;0.00;0.00;19.20;99.90;;;;;;5004618;28;10289;-57
2022/04/19 00:24:38;;;;;;;;;0.00;0.00;19.30;99.90;;;;;;5018056;28;9313;-55
2022/04/19 00:27:09;;;;;;;;;0.00;0.00;19.30;99.90;;;;;;5009935;28;9257;-53
2022/04/19 00:29:41;;;;;;;;;0.00;0.00;19.30;99.90;;;;;;5014223;28;9186;-53
2022/04/19 00:32:11;;;;;;;;;0.00;0.00;19.30;99.90;;;;;;5020595;28;9101;-53
2022/04/19 00:34:46;;;;;;;;;0.00;0.00;19.20;99.90;;;;;;5041387;28;10137;-53
2022/04/19 00:37:18;;;;;;;;;0.00;0.00;19.20;99.90;;;;;;5030150;28;9388;-51
2022/04/19 00:39:49;;;;;;;;;0.00;0.00;19.20;99.90;;;;;;5014340;28;9410;-53
2022/04/19 00:42:19;;;;;;;;;0.33;0.33;19.20;99.90;;;;;;5015427;28;9449;-52
2022/04/19 00:44:49;;;;;;;;;0.00;0.00;19.10;99.90;;;;;;5045351;28;9320;-53
2022/04/19 00:47:21;;;;;;;;;0.00;0.00;19.10;99.90;;;;;;5018865;28;9331;-52
2022/04/19 00:49:54;;;;;;;;;0.00;0.00;19.10;99.90;;;;;;5019910;28;9289;-53
2022/04/19 00:52:26;;;;;;;;;0.33;0.33;19.10;99.90;;;;;;5017143;28;10133;-54
2022/04/19 00:54:59;;;;;;;;;0.00;0.00;19.10;99.90;;;;;;5015129;28;9298;-54
2022/04/19 00:57:34;;;;;;;;;0.67;0.67;19.10;99.90;;;;;;5045508;28;9537;-53
2022/04/19 01:00:08;;;;;;;;;0.00;0.00;19.10;99.90;;;;;;5016185;28;10169;-52
2022/04/19 01:02:42;;;;;;;;;2.67;2.67;19.10;99.90;;;;;;5037398;28;9489;-55
2022/04/19 01:05:16;;;;;;;;;0.00;0.00;19.10;99.90;;;;;;5046842;28;9460;-53
2022/04/19 01:07:47;;;;;;;;;0.33;0.33;19.10;99.90;;;;;;5019088;28;9331;-54
2022/04/19 01:10:23;;;;;;;;;0.00;0.00;19.00;99.90;;;;;;5017707;28;9160;-52
2022/04/19 01:15:46;;;;;;;;;2.00;0.00;19.00;99.90;;;;;;5048485;28;9234;-53
2022/04/19 01:18:23;;;;;;;;;1.00;1.00;18.90;99.90;;;;;;5010030;28;9432;-54
2022/04/19 01:21:04;;;;;;;;;0.00;0.00;18.80;99.90;;;;;;5017629;28;9397;-53
2022/04/19 01:23:34;;;;;;;;;0.00;0.00;18.80;99.90;;;;;;5034184;28;9788;-54
2022/04/19 01:26:07;;;;;;;;;0.00;0.00;18.80;99.90;;;;;;5020559;28;9487;-50
2022/04/19 01:28:40;;;;;;;;;0.67;0.67;18.80;99.90;;;;;;5018936;28;11655;-54
2022/04/19 01:31:11;;;;;;;;;1.00;1.00;18.70;99.90;;;;;;5048784;28;9655;-52
2022/04/19 01:33:48;;;;;;;;;1.00;1.00;18.70;99.90;;;;;;5020344;28;9539;-51
2022/04/19 01:36:19;;;;;;;;;1.00;0.00;18.70;99.90;;;;;;5048305;28;9485;-54
2022/04/19 01:38:48;;;;;;;;;0.67;0.67;18.70;99.90;;;;;;5048769;28;9504;-52
2022/04/19 01:41:22;;;;;;;;;1.00;1.00;18.60;99.90;;;;;;5046529;28;9375;-52
2022/04/19 01:43:55;;;;;;;;;0.00;0.00;18.60;99.90;;;;;;5021126;28;9604;-53
2022/04/19 01:46:27;;;;;;;;;0.00;0.00;18.60;99.90;;;;;;5016325;28;10125;-52
2022/04/19 01:48:58;;;;;;;;;1.00;1.00;18.60;99.90;;;;;;5021238;28;9403;-51
2022/04/19 01:51:30;;;;;;;;;2.00;0.00;18.50;99.90;;;;;;5050346;28;9722;-53
2022/04/19 01:54:02;;;;;;;;;0.00;0.00;18.50;99.90;;;;;;5015769;28;9700;-53
2022/04/19 01:56:33;;;;;;;;;0.00;0.00;18.60;99.90;;;;;;5019014;28;9492;-54
2022/04/19 01:59:29;;;;;;;;;0.00;0.00;18.50;99.90;;;;;;5015415;28;9578;-54
2022/04/19 02:02:19;;;;;;;;;0.00;0.00;18.50;99.90;;;;;;5016657;28;9690;-51
2022/04/19 02:04:51;;;;;;;;;1.00;1.00;18.60;99.90;;;;;;5049033;28;9572;-51
2022/04/19 02:07:24;;;;;;;;;1.33;0.00;18.60;99.90;;;;;;5020832;28;9789;-54
2022/04/19 02:09:54;;;;;;;;;0.00;0.00;18.50;99.90;;;;;;5013737;28;9707;-53
2022/04/19 02:12:24;;;;;;;;;0.00;0.00;18.50;99.90;;;;;;5018200;28;9619;-53
2022/04/19 02:15:02;;;;;;;;;0.00;0.00;18.40;99.90;;;;;;5043322;28;9648;-53
2022/04/19 02:17:34;;;;;;;;;0.00;0.00;18.50;99.90;;;;;;5017686;28;9646;-54
2022/04/19 02:20:07;;;;;;;;;0.00;0.00;18.50;99.90;;;;;;5016288;28;9705;-52
2022/04/19 02:22:39;;;;;;;;;0.00;0.00;18.50;99.90;;;;;;5021166;28;9772;-53
2022/04/19 02:25:12;;;;;;;;;0.00;0.00;18.50;99.90;;;;;;5016263;28;9620;-51
2022/04/19 02:27:44;;;;;;;;;0.00;0.00;18.50;99.90;;;;;;5018252;28;9674;-51
2022/04/19 02:30:19;;;;;;;;;0.00;0.00;18.50;99.90;;;;;;5045994;28;9861;-52
2022/04/19 02:32:56;;;;;;;;;0.00;0.00;18.50;99.90;;;;;;5036232;28;9729;-53
2022/04/19 02:35:31;;;;;;;;;0.00;0.00;18.40;99.90;;;;;;5040605;28;9927;-53
2022/04/19 02:38:06;;;;;;;;;0.00;0.00;18.40;99.90;;;;;;5015814;28;9570;-54
2022/04/19 02:40:46;;;;;;;;;0.00;0.00;18.40;99.90;;;;;;5019321;28;10784;-53
2022/04/19 02:43:18;;;;;;;;;0.00;0.00;18.40;99.90;;;;;;5036329;28;9861;-54
2022/04/19 02:45:54;;;;;;;;;0.75;0.75;18.30;99.90;;;;;;5011029;28;10002;-54
2022/04/19 02:48:32;;;;;;;;;0.00;0.00;18.30;99.90;;;;;;5050289;28;10023;-52
2022/04/19 02:51:05;;;;;;;;;0.25;0.25;18.30;99.90;;;;;;5046902;28;10023;-56
2022/04/19 02:53:36;;;;;;;;;0.25;0.25;18.30;99.90;;;;;;5014542;28;9924;-53
2022/04/19 02:56:07;;;;;;;;;0.50;0.50;18.30;99.90;;;;;;5017963;28;10025;-53
2022/04/19 02:58:37;;;;;;;;;1.00;1.00;18.30;99.90;;;;;;5027025;28;10037;-54
2022/04/19 03:01:07;;;;;;;;;2.50;2.50;18.30;99.90;;;;;;5017528;28;9848;-54
2022/04/19 03:03:39;;;;;;;;;3.25;3.25;18.30;99.90;;;;;;5046599;28;9869;-54
2022/04/19 03:06:12;;;;;;;;;3.50;3.50;18.30;99.90;;;;;;5019400;28;10027;-52
2022/04/19 03:08:43;;;;;;;;;3.50;3.50;18.30;99.90;;;;;;5063179;28;9894;-54
2022/04/19 03:11:14;;;;;;;;;3.75;3.75;18.30;99.90;;;;;;5051558;28;10959;-53
2022/04/19 03:13:44;;;;;;;;;3.75;3.75;18.30;99.90;;;;;;5017661;28;10099;-53
2022/04/19 03:16:18;;;;;;;;;2.75;2.75;18.20;99.90;;;;;;5017832;28;10129;-54
2022/04/19 03:18:49;;;;;;;;;3.50;3.50;18.20;99.90;;;;;;5014422;28;10116;-53
2022/04/19 03:21:20;;;;;;;;;2.75;2.75;18.20;99.90;;;;;;5051164;28;10093;-53
2022/04/19 03:29:29;;;;;;;;;0.00;0.00;18.10;99.90;;;;;;5021637;28;9999;-51
2022/04/19 03:32:00;;;;;;;;;0.50;0.50;18.10;99.90;;;;;;5012045;28;9967;-53
2022/04/19 03:34:31;;;;;;;;;0.00;0.00;18.10;99.90;;;;;;5044959;28;10014;-53
2022/04/19 03:37:03;;;;;;;;;0.00;0.00;18.00;99.90;;;;;;5018168;28;9842;-52
2022/04/19 03:39:35;;;;;;;;;0.00;0.00;18.00;99.90;;;;;;5050347;28;9769;-52
2022/04/19 03:42:08;;;;;;;;;0.00;0.00;18.00;99.90;;;;;;5016525;28;9684;-52
2022/04/19 03:44:39;;;;;;;;;0.00;0.00;17.90;99.90;;;;;;5019771;28;9825;-54
2022/04/19 03:47:09;;;;;;;;;0.00;0.00;17.90;99.90;;;;;;5018655;28;10626;-53
2022/04/19 03:49:44;;;;;;;;;0.00;0.00;17.90;99.90;;;;;;5023031;28;9691;-54
2022/04/19 03:52:16;;;;;;;;;0.00;0.00;17.90;99.90;;;;;;5018458;28;9614;-52
2022/04/19 03:54:48;;;;;;;;;0.00;0.00;17.90;99.90;;;;;;5049309;28;9881;-52
2022/04/19 03:57:20;;;;;;;;;0.00;0.00;17.90;99.90;;;;;;5014936;28;9645;-54
2022/04/19 03:59:51;;;;;;;;;0.00;0.00;17.90;99.90;;;;;;5014628;28;9641;-53
2022/04/19 04:02:28;;;;;;;;;0.00;0.00;17.90;99.90;;;;;;5047293;28;9836;-52
2022/04/19 04:04:58;;;;;;;;;0.00;0.00;17.80;99.90;;;;;;5016841;28;9853;-53
2022/04/19 04:07:30;;;;;;;;;0.00;0.00;17.80;99.90;;;;;;5044299;28;9746;-54
2022/04/19 04:10:01;;;;;;;;;0.00;0.00;17.80;99.90;;;;;;5012084;28;9929;-53
2022/04/19 04:12:32;;;;;;;;;0.00;0.00;17.80;99.90;;;;;;5032893;28;9937;-51
2022/04/19 04:15:04;;;;;;;;;0.00;0.00;17.70;99.90;;;;;;5033103;28;9842;-55
2022/04/19 04:17:35;;;;;;;;;2.00;0.00;17.70;99.90;;;;;;5047337;28;9846;-52
2022/04/19 04:20:08;;;;;;;;;0.00;0.00;17.70;99.90;;;;;;5015792;28;9661;-53
2022/04/19 04:22:38;;;;;;;;;0.00;0.00;17.70;99.90;;;;;;5016069;28;9915;-51
2022/04/19 04:25:10;;;;;;;;;0.00;0.00;17.70;99.90;;;;;;5017601;28;9719;-54
2022/04/19 04:27:41;;;;;;;;;0.00;0.00;17.70;99.90;;;;;;5046729;28;9844;-54
2022/04/19 04:30:11;;;;;;;;;0.00;0.00;17.60;99.90;;;;;;5015771;28;9939;-51
2022/04/19 04:32:51;;;;;;;;;0.00;0.00;17.60;99.90;;;;;;5052588;28;9848;-54
2022/04/19 04:35:21;;;;;;;;;0.00;0.00;17.60;99.90;;;;;;5041588;28;9928;-53
2022/04/19 04:37:52;;;;;;;;;0.75;0.00;17.60;99.90;;;;;;5046940;28;9959;-54
2022/04/19 04:40:24;;;;;;;;;0.00;0.00;17.50;99.90;;;;;;5042794;28;10072;-50
2022/04/19 04:43:04;;;;;;;;;0.00;0.00;17.40;99.90;;;;;;5017113;28;9835;-54
2022/04/19 04:45:35;;;;;;;;;0.00;0.00;17.50;99.90;;;;;;5016784;28;10855;-51
2022/04/19 04:50:59;;;;;;;;;0.00;0.00;17.40;99.90;;;;;;5025204;28;10711;-55
2022/04/19 04:53:30;;;;;;;;;0.00;0.00;17.30;99.90;;;;;;5045334;28;10160;-54
2022/04/19 04:56:28;;;;;;;;;0.00;0.00;17.30;99.90;;;;;;5016502;28;10831;-51
2022/04/19 04:58:59;;;;;;;;;0.00;0.00;17.30;99.90;;;;;;5019127;28;10965;-52
2022/04/19 05:01:32;;;;;;;;;0.00;0.00;17.30;99.90;;;;;;5016471;28;10091;-51
2022/04/19 05:04:05;;;;;;;;;0.00;0.00;17.30;99.90;;;;;;5020437;28;10266;-53
2022/04/19 05:06:36;;;;;;;;;0.00;0.00;17.30;99.90;;;;;;5016632;28;10142;-54
2022/04/19 05:09:07;;;;;;;;;0.00;0.00;17.30;99.90;;;;;;5035843;28;10240;-53
2022/04/19 05:11:37;;;;;;;;;0.00;0.00;17.30;99.90;;;;;;5020722;28;10325;-54
2022/04/19 05:14:09;;;;;;;;;0.00;0.00;17.30;99.90;;;;;;5019052;28;10403;-53
2022/04/19 05:16:42;;;;;;;;;0.00;0.00;17.30;99.90;;;;;;5020296;28;10363;-54
2022/04/19 05:19:12;;;;;;;;;1.50;0.00;17.40;99.90;;;;;;5020613;28;10315;-55
2022/04/19 05:21:48;;;;;;;;;0.00;0.00;17.40;99.90;;;;;;5053443;28;10342;-53
2022/04/19 05:24:18;;;;;;;;;0.00;0.00;17.40;99.90;;;;;;5010638;28;10505;-53
2022/04/19 05:26:49;;;;;;;;;0.00;0.00;17.30;99.90;;;;;;5049547;28;10392;-52
2022/04/19 05:29:19;;;;;;;;;0.00;0.00;17.30;99.90;;;;;;5028141;28;10589;-51
2022/04/19 05:31:51;;;;;;;;;0.00;0.00;17.30;99.90;;;;;;5050713;28;10552;-52
2022/04/19 05:34:24;;;;;;;;;0.00;0.00;17.30;99.90;;;;;;5046670;28;10927;-52
2022/04/19 05:36:54;;;;;;;;;2.00;0.00;17.30;99.90;;;;;;5024814;28;10799;-51
2022/04/19 05:39:26;;;;;;;;;0.00;0.00;17.30;99.90;;;;;;5019233;28;11602;-51
2022/04/19 05:41:57;;;;;;;;;0.00;0.00;17.30;99.90;;;;;;5054543;28;11046;-54
2022/04/19 05:44:28;;;;;;;;;0.25;0.00;17.30;99.90;;;;;;5019464;28;11419;-53
2022/04/19 05:46:58;;;;;;;;;0.00;0.00;17.30;99.90;;;;;;5020056;28;11474;-53
2022/04/19 05:49:30;;;;;;;;;0.00;0.00;17.30;99.90;;;;;;5004662;28;11444;-52
2022/04/19 05:52:03;;;;;;;;;0.00;0.00;17.30;99.90;;;;;;5018579;28;11507;-53
2022/04/19 05:54:34;;;;;;;;;0.25;0.25;17.30;99.90;;;;;;5020713;28;11554;-51
2022/04/19 05:57:05;;;;;;;;;1.25;1.25;17.20;99.90;;;;;;5054964;28;11718;-52
2022/04/19 05:59:35;;;;;;;;;8.75;8.75;17.20;99.90;;;;;;5053362;28;11501;-54
2022/04/19 06:04:56;;;;;;;;;13.25;13.25;17.20;99.90;;;;;;5049287;28;11546;-52
2022/04/19 06:07:30;;;;;;;;;22.50;22.50;17.20;99.90;;;;;;5050034;28;11663;-52
2022/04/19 06:10:10;;;;;;;;;19.50;19.50;17.20;99.90;;;;;;5019725;28;11605;-52
2022/04/19 06:12:43;;;;;;;;;20.25;20.25;17.20;99.90;;;;;;5021586;28;11695;-51
2022/04/19 06:15:13;;;;;;;;;22.00;22.00;17.20;99.90;;;;;;5019742;28;11574;-53
2022/04/19 06:17:45;;;;;;;;;19.75;19.75;17.20;99.90;;;;;;5023865;28;11564;-54
2022/04/19 06:20:53;;;;;;;;;21.50;21.50;17.20;99.90;;;;;;5007329;28;11523;-53
2022/04/19 06:23:25;;;;;;;;;21.75;21.75;17.10;99.90;;;;;;5046630;28;11576;-53
2022/04/19 06:25:56;;;;;;;;;21.50;21.50;17.10;99.90;;;;;;5052791;28;11564;-53
2022/04/19 06:28:30;;;;;;;;;24.00;23.00;17.10;99.90;;;;;;5020837;28;11594;-54
2022/04/19 06:31:20;;;;;;;;;24.25;23.75;17.10;99.90;;;;;;5015166;28;11701;-54
2022/04/19 06:34:11;;;;;;;;;26.25;26.25;17.10;99.90;;;;;;5016152;28;11757;-54
2022/04/19 06:37:05;;;;;;;;;26.50;26.50;17.00;99.90;;;;;;5018026;28;11602;-51
2022/04/19 06:39:41;;;;;;;;;26.50;26.50;17.00;99.90;;;;;;5005026;28;11627;-53
2022/04/19 06:42:11;;;;;;;;;27.75;27.25;17.00;99.90;;;;;;5050485;28;11596;-50
2022/04/19 06:45:04;;;;;;;;;29.00;28.75;17.00;99.90;;;;;;5019072;28;11558;-54
2022/04/19 06:47:40;;;;;;;;;31.00;30.25;17.00;99.90;;;;;;4983088;28;11611;-54
2022/04/19 06:50:12;;;;;;;;;32.75;30.50;17.00;99.90;;;;;;5017773;28;11599;-50
2022/04/19 06:52:45;;;;;;;;;32.50;31.50;17.00;99.90;;;;;;5021613;28;11660;-52
2022/04/19 06:55:34;;;;;;;;;31.00;30.25;17.00;99.90;;;;;;5017767;28;11551;-53
2022/04/19 06:58:04;;;;;;;;;31.50;30.50;17.00;99.90;;;;;;5015397;28;11605;-51
2022/04/19 07:00:35;;;;;;;;;32.50;31.25;17.00;99.90;;;;;;5048214;28;11547;-51
2022/04/19 07:03:05;;;;;;;;;32.25;31.25;17.00;99.90;;;;;;5036106;28;11620;-50
2022/04/19 07:05:54;;;;;;;;;35.75;32.50;17.00;99.90;;;;;;5023591;28;11543;-53
2022/04/19 07:08:25;;;;;;;;;35.00;32.75;17.00;99.90;;;;;;5021068;28;11560;-51
2022/04/19 07:10:56;;;;;;;;;27.00;26.50;17.00;99.90;;;;;;5019759;28;11614;-51
2022/04/19 07:13:46;;;;;;;;;20.75;20.75;17.00;99.90;;;;;;5015092;28;11601;-51
2022/04/19 07:16:35;;;;;;;;;13.75;13.75;17.00;99.90;;;;;;5010836;28;12325;-52
2022/04/19 07:19:07;;;;;;;;;19.50;19.50;16.90;99.90;;;;;;5030243;28;11622;-51
2022/04/19 07:27:44;;;;;;;;;20.75;20.75;16.90;99.90;;;;;;5004593;28;11594;-54
2022/04/19 07:30:17;;;;;;;;;16.00;16.00;16.90;99.90;;;;;;5046511;28;11736;-53
2022/04/19 07:32:47;;;;;;;;;11.50;11.50;16.90;99.90;;;;;;5018423;28;11591;-54
2022/04/19 07:35:23;;;;;;;;;13.00;11.00;16.90;99.90;;;;;;5044052;28;11602;-53
2022/04/19 07:37:53;;;;;;;;;10.75;9.25;16.90;99.90;;;;;;5017486;28;11616;-51
2022/04/19 07:40:33;;;;;;;;;14.25;12.25;16.90;99.90;;;;;;5019096;28;12400;-51
2022/04/19 07:43:04;;;;;;;;;12.25;12.25;16.90;99.90;;;;;;5017819;28;11570;-51
2022/04/19 07:45:35;;;;;;;;;12.00;12.00;16.90;99.90;;;;;;5048065;28;12288;-50
2022/04/19 07:48:07;;;;;;;;;10.25;10.25;16.90;99.90;;;;;;5017880;28;11500;-48
2022/04/19 07:50:39;;;;;;;;;11.00;11.00;16.90;99.90;;;;;;5046326;28;11501;-50
2022/04/19 07:53:11;;;;;;;;;11.75;11.75;16.90;99.90;;;;;;5023635;28;11484;-53
2022/04/19 07:55:41;;;;;;;;;10.75;10.75;16.80;99.90;;;;;;5034931;28;11461;-52
2022/04/19 07:58:11;;;;;;;;;14.25;14.25;16.80;99.90;;;;;;5018982;28;12180;-51
2022/04/19 08:00:42;;;;;;;;;13.25;13.25;16.80;99.90;;;;;;5044747;28;11518;-51
2022/04/19 08:03:12;;;;;;;;;12.50;12.50;16.80;99.90;;;;;;5046941;28;11447;-52
2022/04/19 08:05:44;;;;;;;;;11.75;11.75;16.80;99.90;;;;;;5025285;28;11596;-52
2022/04/19 08:08:16;;;;;;;;;12.25;12.25;16.80;99.90;;;;;;5017813;28;11218;-53
2022/04/19 08:10:50;;;;;;;;;8.75;8.75;16.80;99.90;;;;;;5018100;28;11492;-52
2022/04/19 08:13:20;;;;;;;;;10.75;10.75;16.80;99.90;;;;;;5017619;28;11495;-53
2022/04/19 08:15:51;;;;;;;;;9.75;9.75;16.80;99.90;;;;;;5032797;28;11483;-52
2022/04/19 08:18:22;;;;;;;;;10.75;10.75;16.80;99.90;;;;;;5011985;28;11431;-53
2022/04/19 08:20:54;;;;;;;;;10.75;10.75;16.80;99.90;;;;;;5043907;28;11443;-50
2022/04/19 08:23:25;;;;;;;;;11.50;11.50;16.80;99.90;;;;;;5016518;28;11598;-52
2022/04/19 08:26:08;;;;;;;;;12.00;12.00;16.80;99.90;;;;;;5044103;28;11601;-51
2022/04/19 08:28:37;;;;;;;;;9.25;9.25;16.80;99.90;;;;;;5015770;28;11465;-51
2022/04/19 08:31:08;;;;;;;;;11.50;9.50;16.80;99.90;;;;;;5007938;28;10968;-52
2022/04/19 08:33:38;;;;;;;;;10.50;10.50;16.80;99.90;;;;;;5016193;28;11163;-52
2022/04/19 08:36:13;;;;;;;;;10.25;9.25;16.80;99.90;;;;;;5015861;28;11618;-49
2022/04/19 08:38:46;;;;;;;;;9.75;9.75;16.80;99.90;;;;;;5018370;28;11237;-53
2022/04/19 08:41:21;;;;;;;;;8.75;8.75;16.80;99.90;;;;;;5013665;28;11492;-51
2022/04/19 08:43:54;;;;;;;;;9.25;9.25;16.70;99.90;;;;;;5030781;28;12010;-50
2022/04/19 08:46:26;;;;;;;;;8.25;8.25;16.70;99.90;;;;;;5021218;28;11099;-50
2022/04/19 08:49:04;;;;;;;;;7.00;7.00;16.70;99.90;;;;;;5019679;28;11134;-52
2022/04/19 08:51:36;;;;;;;;;8.00;8.00;16.70;99.90;;;;;;5012878;28;10876;-49
2022/04/19 08:59:46;;;;;;;;;5.50;4.00;16.70;99.90;;;;;;5010539;28;10974;-52
2022/04/19 09:02:21;;;;;;;;;2.00;2.00;16.70;99.90;;;;;;5015892;28;10847;-52
2022/04/19 09:04:52;;;;;;;;;1.25;1.25;16.70;99.90;;;;;;5016045;28;11133;-51
2022/04/19 09:07:36;;;;;;;;;3.00;1.25;16.70;99.90;;;;;;5015272;28;10944;-52
2022/04/19 09:10:07;;;;;;;;;2.25;1.00;16.70;99.90;;;;;;5017761;28;10942;-52
2022/04/19 09:12:39;;;;;;;;;0.00;0.00;16.70;99.90;;;;;;5019450;28;10893;-51
2022/04/19 09:15:12;;;;;;;;;0.75;0.75;16.60;99.90;;;;;;5019578;28;10832;-50
2022/04/19 09:17:43;;;;;;;;;0.00;0.00;16.60;99.90;;;;;;5017592;28;11210;-51
2022/04/19 09:20:18;;;;;;;;;3.50;2.00;16.60;99.90;;;;;;5009273;28;10567;-51
2022/04/19 09:22:59;;;;;;;;;0.00;0.00;16.60;99.90;;;;;;5016814;28;10495;-52
2022/04/19 09:25:30;;;;;;;;;1.00;1.00;16.60;99.90;;;;;;5017836;28;10541;-51
2022/04/19 09:28:05;;;;;;;;;0.25;0.25;16.60;99.90;;;;;;5016784;28;11122;-52
2022/04/19 09:30:34;;;;;;;;;0.25;0.25;16.60;99.90;;;;;;5015047;28;10523;-49
2022/04/19 09:33:12;;;;;;;;;0.50;0.50;16.60;99.90;;;;;;5015169;28;10399;-52
2022/04/19 09:35:55;;;;;;;;;0.50;0.50;16.60;99.90;;;;;;5013148;28;11098;-53
2022/04/19 09:38:49;;;;;;;;;0.00;0.00;16.60;99.90;;;;;;5023904;28;10654;-51
2022/04/19 09:41:33;;;;;;;;;0.00;0.00;16.60;99.90;;;;;;5012406;28;10316;-52
2022/04/19 09:44:12;;;;;;;;;1.25;0.00;16.50;99.90;;;;;;5020342;28;10343;-51
2022/04/19 09:47:22;;;;;;;;;0.50;0.00;16.60;99.90;;;;;;5011627;28;10132;-54
2022/04/19 09:49:55;;;;;;;;;1.00;1.00;16.50;99.90;;;;;;4960946;28;10407;-55
2022/04/19 09:52:26;;;;;;;;;0.00;0.00;16.50;99.90;;;;;;4959384;28;10765;-54
2022/04/19 09:55:08;;;;;;;;;0.00;0.00;16.50;99.90;;;;;;4998974;28;10640;-51
2022/04/19 09:57:41;;;;;;;;;2.00;0.75;16.50;99.90;;;;;;5017056;28;10527;-51
2022/04/19 10:00:13;;;;;;;;;1.50;0.50;16.50;99.90;;;;;;5018456;28;10463;-51
2022/04/19 10:08:24;;;;;;;;;1.00;1.00;16.50;99.90;;;;;;5019040;28;10511;-49
2022/04/19 10:10:56;;;;;;;;;0.00;0.00;16.50;99.90;;;;;;5015674;28;10608;-50
2022/04/19 10:13:28;;;;;;;;;0.75;0.75;16.40;99.90;;;;;;5051716;28;10420;-53
2022/04/19 10:16:04;;;;;;;;;0.75;0.75;16.40;99.90;;;;;;5021243;28;10516;-49
2022/04/19 10:18:34;;;;;;;;;1.00;1.00;16.40;99.90;;;;;;5015624;28;10484;-52
2022/04/19 10:21:13;;;;;;;;;3.50;2.00;16.40;99.90;;;;;;5023337;28;11048;-52
2022/04/19 10:23:44;;;;;;;;;2.00;2.00;16.40;99.90;;;;;;5012791;28;10527;-52
2022/04/19 10:26:25;;;;;;;;;1.75;1.50;16.40;99.90;;;;;;5012265;28;10570;-50
2022/04/19 10:28:58;;;;;;;;;1.00;1.00;16.40;99.90;;;;;;5016707;28;10593;-50
2022/04/19 10:31:34;;;;;;;;;0.25;0.25;16.40;99.90;;;;;;5019768;28;10695;-52
2022/04/19 10:34:07;;;;;;;;;2.25;0.00;16.40;99.90;;;;;;5014007;28;10507;-52
2022/04/19 10:36:40;;;;;;;;;2.00;2.00;16.40;99.90;;;;;;5052578;28;10522;-51
2022/04/19 10:39:15;;;;;;;;;0.75;0.75;16.40;99.90;;;;;;5017092;28;10700;-53
2022/04/19 10:42:00;;;;;;;;;1.00;1.00;16.40;99.90;;;;;;5009460;28;10536;-53
2022/04/19 10:44:40;;;;;;;;;0.75;0.75;16.30;99.90;;;;;;5013500;28;10460;-51
2022/04/19 10:47:20;;;;;;;;;0.50;0.50;16.30;99.90;;;;;;5007519;28;10471;-52
2022/04/19 10:49:58;;;;;;;;;1.00;1.00;16.30;99.90;;;;;;5011099;28;10516;-53
2022/04/19 10:52:40;;;;;;;;;0.00;0.00;16.30;99.90;;;;;;5043137;28;10393;-55
2022/04/19 10:55:23;;;;;;;;;1.75;1.75;16.30;99.90;;;;;;5009798;28;10585;-52
2022/04/19 10:58:20;;;;;;;;;1.50;1.00;16.30;99.90;;;;;;5019142;28;10663;-53
2022/04/19 11:01:05;;;;;;;;;1.00;1.00;16.30;99.90;;;;;;5041664;28;10641;-53
2022/04/19 11:03:47;;;;;;;;;0.75;0.75;16.30;99.90;;;;;;5050415;28;10567;-54
2022/04/19 11:06:31;;;;;;;;;0.50;0.50;16.30;99.90;;;;;;5015331;28;11347;-54
2022/04/19 11:09:26;;;;;;;;;0.50;0.50;16.20;99.90;;;;;;5018500;28;10634;-54
2022/04/19 11:12:10;;;;;;;;;0.00;0.00;16.20;99.90;;;;;;5013763;28;10587;-50
2022/04/19 11:14:43;;;;;;;;;0.00;0.00;16.20;99.90;;;;;;5012077;28;10526;-52
2022/04/19 11:17:21;;;;;;;;;0.25;0.25;16.20;99.90;;;;;;5010629;28;10756;-49
2022/04/19 11:20:16;;;;;;;;;1.00;1.00;16.20;99.90;;;;;;5017021;28;10729;-51
2022/04/19 11:22:51;;;;;;;;;0.00;0.00;16.20;99.90;;;;;;5017769;28;10693;-50
2022/04/19 11:25:42;;;;;;;;;1.00;1.00;16.10;99.90;;;;;;5013086;28;11484;-50
2022/04/19 11:28:13;;;;;;;;;1.00;1.00;16.10;99.90;;;;;;5017205;28;10659;-52
2022/04/19 11:30:50;;;;;;;;;0.75;0.75;16.10;99.90;;;;;;5013505;28;10550;-48
2022/04/19 11:33:23;;;;;;;;;0.00;0.00;16.10;99.90;;;;;;5014830;28;10757;-50
2022/04/19 11:36:00;;;;;;;;;0.50;0.00;16.10;99.90;;;;;;5035370;28;10420;-54
2022/04/19 11:38:31;;;;;;;;;1.00;1.00;16.10;99.90;;;;;;5015584;28;10596;-52
2022/04/19 11:46:46;;;;;;;;;0.00;0.00;16.10;99.90;;;;;;5017659;28;10514;-49
2022/04/19 11:49:20;;;;;;;;;1.00;1.00;16.10;99.90;;;;;;5013807;28;10536;-52
2022/04/19 11:51:52;;;;;;;;;1.00;1.00;16.10;99.90;;;;;;5018838;28;10416;-53
2022/04/19 11:54:29;;;;;;;;;0.50;0.50;16.10;99.90;;;;;;5018788;28;10699;-54
2022/04/19 11:57:05;;;;;;;;;1.00;1.00;16.10;99.90;;;;;;5015407;28;10617;-51
2022/04/19 11:59:42;;;;;;;;;1.00;1.00;16.00;99.90;;;;;;5015869;28;10481;-51
2022/04/19 12:02:20;;;;;;;;;1.00;1.00;16.00;99.90;;;;;;5047393;28;11853;-52
2022/04/19 12:04:54;;;;;;;;;1.00;1.00;16.00;99.90;;;;;;5017797;28;10536;-52
2022/04/19 12:07:25;;;;;;;;;0.50;0.50;16.00;99.90;;;;;;5041307;28;10516;-54
2022/04/19 12:09:59;;;;;;;;;0.75;0.75;16.00;99.90;;;;;;5016785;28;10472;-53
2022/04/19 12:12:29;;;;;;;;;0.75;0.75;16.00;99.90;;;;;;5016794;28;10527;-53
2022/04/19 12:15:05;;;;;;;;;0.00;0.00;16.00;99.90;;;;;;5017597;28;11142;-52
2022/04/19 12:17:45;;;;;;;;;0.00;0.00;16.00;99.90;;;;;;5016871;28;10455;-52
2022/04/19 12:20:16;;;;;;;;;0.00;0.00;16.00;99.90;;;;;;5016249;28;10777;-55
2022/04/19 12:22:48;;;;;;;;;0.00;0.00;15.90;99.90;;;;;;5015460;28;10552;-53
2022/04/19 12:25:25;;;;;;;;;0.00;0.00;15.90;99.90;;;;;;5018511;28;10596;-53
2022/04/19 12:27:55;;;;;;;;;0.50;0.50;16.00;99.90;;;;;;5014428;28;10490;-53
2022/04/19 12:30:29;;;;;;;;;0.25;0.25;15.90;99.90;;;;;;5016065;28;11231;-52
2022/04/19 12:33:01;;;;;;;;;0.25;0.25;15.90;99.90;;;;;;5011501;28;10505;-51
2022/04/19 12:35:34;;;;;;;;;0.00;0.00;15.90;99.90;;;;;;5015927;28;10587;-52
2022/04/19 12:38:06;;;;;;;;;1.75;1.75;15.90;99.90;;;;;;5042412;28;10608;-52
2022/04/19 12:40:39;;;;;;;;;4.00;2.00;15.90;99.90;;;;;;5015242;28;10832;-50
2022/04/19 12:43:12;;;;;;;;;1.00;1.00;15.90;99.90;;;;;;5018986;28;10726;-53
2022/04/19 12:45:42;;;;;;;;;0.00;0.00;15.80;99.90;;;;;;5013585;28;10745;-52
2022/04/19 12:48:24;;;;;;;;;0.00;0.00;15.80;99.90;;;;;;5019171;28;10701;-52
2022/04/19 12:51:04;;;;;;;;;0.50;0.50;15.80;99.90;;;;;;5048760;28;10516;-51
2022/04/19 12:53:36;;;;;;;;;2.25;1.00;15.80;99.90;;;;;;5013373;28;10437;-52
2022/04/19 12:59:03;;;;;;;;;0.00;0.00;15.80;99.90;;;;;;5012718;28;11244;-51
2022/04/19 13:01:34;;;;;;;;;0.00;0.00;15.70;99.90;;;;;;5015675;28;10676;-52
2022/04/19 13:04:06;;;;;;;;;1.00;1.00;15.70;99.90;;;;;;5015265;28;10728;-52
2022/04/19 13:12:19;;;;;;;;;3.00;1.00;15.70;99.90;;;;;;5007525;28;10900;-53
2022/04/19 13:14:52;;;;;;;;;0.75;0.75;15.70;99.90;;;;;;5011091;28;11033;-52
2022/04/19 13:17:32;;;;;;;;;1.00;1.00;15.70;99.90;;;;;;5013252;28;10990;-53
2022/04/19 13:20:05;;;;;;;;;0.00;0.00;15.70;99.90;;;;;;5015690;28;10592;-51
2022/04/19 13:22:36;;;;;;;;;0.00;0.00;15.70;99.90;;;;;;5023312;28;10747;-50
2022/04/19 13:25:09;;;;;;;;;0.00;0.00;15.70;99.90;;;;;;5021676;28;11392;-51
2022/04/19 13:27:38;;;;;;;;;1.00;1.00;15.70;99.90;;;;;;5022932;28;10681;-52
2022/04/19 13:30:10;;;;;;;;;0.00;0.00;15.70;99.90;;;;;;5016852;28;10745;-51
2022/04/19 13:32:41;;;;;;;;;1.00;1.00;15.70;99.90;;;;;;5013129;28;10731;-53
2022/04/19 13:35:11;;;;;;;;;1.75;1.00;15.70;99.90;;;;;;5018314;28;10876;-52
2022/04/19 13:40:30;;;;;;;;;0.00;0.00;15.60;99.90;;;;;;5013186;28;10868;-50
2022/04/19 13:43:00;;;;;;;;;0.50;0.50;15.70;99.90;;;;;;5013774;28;11345;-51
2022/04/19 13:45:33;;;;;;;;;1.00;1.00;15.60;99.90;;;;;;5050734;28;10680;-52
2022/04/19 13:48:08;;;;;;;;;2.00;1.00;15.60;99.90;;;;;;5021187;28;10701;-57
2022/04/19 13:50:38;;;;;;;;;1.00;1.00;15.60;99.90;;;;;;5022161;28;10816;-52
2022/04/19 13:53:09;;;;;;;;;2.25;0.00;15.60;99.90;;;;;;5020564;28;10819;-53
2022/04/19 13:55:40;;;;;;;;;0.00;0.00;15.60;99.90;;;;;;5021195;28;10972;-53
2022/04/19 13:58:10;;;;;;;;;0.75;0.75;15.60;99.90;;;;;;5052310;28;10684;-51
2022/04/19 14:00:46;;;;;;;;;0.00;0.00;15.60;99.90;;;;;;5021163;28;10513;-53
2022/04/19 14:03:17;;;;;;;;;0.00;0.00;15.60;99.90;;;;;;5021547;28;11549;-53
2022/04/19 14:05:48;;;;;;;;;0.00;0.00;15.60;99.90;;;;;;5008627;28;10648;-53
2022/04/19 14:08:19;;;;;;;;;1.00;1.00;15.60;99.90;;;;;;5016667;28;10871;-52
2022/04/19 14:10:50;;;;;;;;;1.00;1.00;15.50;99.90;;;;;;5016655;28;10568;-53